Time;durP1;ratioP1;P1;durP2;ratioP2;P2;SDS_P1;SDS_P2;PMS_P1;PMS_P2;Temp;Humidity;BMP_temperature;BMP_pressure;BME280_temperature;BME280_humidity;BME280_pressure;Samples;Min_cycle;Max_cycle;Signal;HPM_P1;HPM_P2
2023/08/08 00:02:05;;;;;;;3.13;1.63;;;16.40;99.90;;;;;;5074437;28;20052;-80
2023/08/08 00:04:31;;;;;;;1.90;1.30;;;16.40;99.90;;;;;;5070680;28;20031;-80
2023/08/08 00:06:57;;;;;;;2.63;1.52;;;16.50;99.90;;;;;;5073192;28;20017;-81
2023/08/08 00:09:23;;;;;;;4.55;1.30;;;16.60;99.90;;;;;;5074533;28;20020;-80
2023/08/08 00:11:49;;;;;;;3.80;1.20;;;16.60;99.90;;;;;;5074741;28;20021;-81
2023/08/08 00:14:14;;;;;;;1.75;1.05;;;16.60;99.90;;;;;;5074065;28;20020;-80
2023/08/08 00:16:40;;;;;;;1.80;1.00;;;16.60;99.90;;;;;;5073281;28;20860;-81
2023/08/08 00:19:06;;;;;;;4.28;1.30;;;16.60;99.90;;;;;;5073515;28;20263;-80
2023/08/08 00:21:31;;;;;;;1.95;1.23;;;16.60;99.90;;;;;;5075046;28;20024;-80
2023/08/08 00:23:57;;;;;;;3.80;1.73;;;16.60;99.90;;;;;;5074801;28;20038;-81
2023/08/08 00:26:23;;;;;;;2.50;1.27;;;16.60;99.90;;;;;;5072855;28;20044;-80
2023/08/08 00:28:49;;;;;;;3.58;1.10;;;16.60;99.90;;;;;;5072774;28;20064;-80
2023/08/08 00:31:17;;;;;;;4.20;1.10;;;16.60;99.90;;;;;;5073246;28;20031;-80
2023/08/08 00:33:43;;;;;;;6.45;1.20;;;16.60;99.90;;;;;;5074051;28;20115;-80
2023/08/08 00:36:08;;;;;;;1.65;1.10;;;16.60;99.90;;;;;;5071903;28;20108;-81
2023/08/08 00:38:34;;;;;;;2.53;0.90;;;16.70;99.90;;;;;;5074091;28;20107;-80
2023/08/08 00:41:00;;;;;;;1.90;1.02;;;16.70;99.90;;;;;;5074166;28;20055;-81
2023/08/08 00:43:26;;;;;;;8.45;1.10;;;16.60;99.90;;;;;;5072072;28;20527;-81
2023/08/08 00:45:52;;;;;;;1.25;0.68;;;16.70;99.90;;;;;;5074055;28;20046;-81
2023/08/08 00:48:19;;;;;;;2.05;1.08;;;16.70;99.90;;;;;;5072833;28;20455;-81
2023/08/08 00:50:48;;;;;;;4.53;1.50;;;16.70;99.90;;;;;;5074003;28;20025;-81
2023/08/08 00:53:15;;;;;;;2.00;0.98;;;16.80;99.90;;;;;;5074118;28;20051;-79
2023/08/08 00:55:41;;;;;;;2.75;1.17;;;16.80;99.90;;;;;;5073806;28;20024;-79
2023/08/08 00:58:07;;;;;;;1.52;0.95;;;16.80;99.90;;;;;;5072178;28;20047;-81
2023/08/08 01:00:32;;;;;;;2.78;1.10;;;16.80;99.90;;;;;;5053035;28;20062;-82
2023/08/08 01:02:58;;;;;;;1.45;0.85;;;16.80;99.90;;;;;;5058724;28;20367;-80
2023/08/08 01:05:29;;;;;;;1.85;0.95;;;16.70;99.90;;;;;;5074351;28;20024;-81
2023/08/08 01:08:01;;;;;;;1.58;0.90;;;16.80;99.90;;;;;;5089798;28;20024;-82
2023/08/08 01:10:31;;;;;;;1.15;0.80;;;16.80;99.90;;;;;;5075977;28;20039;-81
2023/08/08 01:13:03;;;;;;;3.15;1.20;;;16.80;99.90;;;;;;5073877;28;20099;-80
2023/08/08 01:15:35;;;;;;;1.48;0.77;;;16.90;99.90;;;;;;5069094;28;20020;-80
2023/08/08 01:18:04;;;;;;;;;;;16.90;99.90;;;;;;5074389;28;20368;-81
2023/08/08 01:20:33;;;;;;;3.92;1.58;;;16.90;99.90;;;;;;5072630;28;19908;-80
2023/08/08 01:23:26;;;;;;;2.75;0.90;;;16.90;99.90;;;;;;5072510;28;20029;-81
2023/08/08 01:25:52;;;;;;;2.35;0.90;;;16.80;99.90;;;;;;5057935;28;20154;-82
2023/08/08 01:28:22;;;;;;;2.13;0.82;;;16.80;99.90;;;;;;5072009;28;20100;-79
2023/08/08 01:30:48;;;;;;;1.13;0.77;;;16.70;99.90;;;;;;5072856;28;20020;-80
2023/08/08 01:33:14;;;;;;;1.50;0.70;;;16.70;99.90;;;;;;5071917;28;20028;-79
2023/08/08 01:35:48;;;;;;;3.20;0.93;;;16.70;99.90;;;;;;5073413;28;20025;-81
2023/08/08 01:38:28;;;;;;;3.78;0.80;;;16.70;99.90;;;;;;5071616;28;20682;-81
2023/08/08 01:40:57;;;;;;;2.03;1.00;;;16.70;99.90;;;;;;5071860;28;20020;-82
2023/08/08 01:43:24;;;;;;;1.85;0.80;;;16.70;99.90;;;;;;5072923;28;20040;-80
2023/08/08 01:45:52;;;;;;;3.85;0.88;;;16.70;99.90;;;;;;5072560;28;20340;-80
2023/08/08 01:48:18;;;;;;;1.83;0.80;;;16.80;99.90;;;;;;5072925;28;20417;-80
2023/08/08 01:50:44;;;;;;;3.70;1.10;;;16.80;99.90;;;;;;5071894;28;20027;-80
2023/08/08 01:53:10;;;;;;;2.35;0.75;;;16.80;99.90;;;;;;5072905;28;20017;-79
2023/08/08 01:55:35;;;;;;;1.92;0.80;;;16.90;99.90;;;;;;5072927;28;20407;-80
2023/08/08 01:58:01;;;;;;;4.00;0.80;;;16.90;99.90;;;;;;5073440;28;20049;-80
2023/08/08 02:00:27;;;;;;;2.33;0.85;;;16.90;99.90;;;;;;5071155;28;20429;-82
2023/08/08 02:02:53;;;;;;;3.30;1.05;;;16.90;99.90;;;;;;5072882;28;20528;-81
2023/08/08 02:05:18;;;;;;;4.00;0.80;;;16.90;99.90;;;;;;5073864;28;20021;-80
2023/08/08 02:07:44;;;;;;;1.35;0.60;;;16.90;99.90;;;;;;5075626;28;20111;-81
2023/08/08 02:10:10;;;;;;;2.10;0.75;;;16.90;99.90;;;;;;5076930;28;20365;-81
2023/08/08 02:12:35;;;;;;;1.02;0.70;;;16.90;99.90;;;;;;5075051;28;20419;-81
2023/08/08 02:15:01;;;;;;;0.85;0.70;;;16.90;99.90;;;;;;5076495;28;20025;-81
2023/08/08 02:17:29;;;;;;;1.80;0.80;;;16.90;99.90;;;;;;5074946;28;20024;-80
2023/08/08 02:19:55;;;;;;;1.42;0.65;;;16.90;99.90;;;;;;5075091;28;20017;-80
2023/08/08 02:22:21;;;;;;;0.60;0.40;;;16.90;99.90;;;;;;5075408;28;20023;-81
2023/08/08 02:24:47;;;;;;;1.38;0.50;;;16.90;99.90;;;;;;5091473;28;20040;-80
2023/08/08 02:27:14;;;;;;;1.60;0.50;;;16.90;99.90;;;;;;5091569;28;20070;-82
2023/08/08 02:29:40;;;;;;;2.00;0.60;;;17.00;99.90;;;;;;5075220;28;20021;-81
2023/08/08 02:32:06;;;;;;;1.20;0.57;;;17.00;99.90;;;;;;5075033;28;20055;-81
2023/08/08 02:34:31;;;;;;;1.73;0.43;;;17.10;99.90;;;;;;5076676;28;20051;-80
2023/08/08 02:36:57;;;;;;;0.93;0.40;;;17.00;99.90;;;;;;5075230;28;20051;-80
2023/08/08 02:39:23;;;;;;;2.10;0.40;;;17.10;99.90;;;;;;5075110;28;20041;-80
2023/08/08 02:41:49;;;;;;;3.53;0.47;;;17.20;99.90;;;;;;5076075;28;20023;-81
2023/08/08 02:44:14;;;;;;;1.50;0.60;;;17.20;99.90;;;;;;5078999;28;20124;-81
2023/08/08 02:46:40;;;;;;;2.65;0.60;;;17.20;99.90;;;;;;5092650;28;20415;-81
2023/08/08 02:49:06;;;;;;;1.13;0.40;;;17.20;99.90;;;;;;5076554;28;20024;-80
2023/08/08 02:51:32;;;;;;;3.10;0.80;;;17.20;99.90;;;;;;5092326;28;20025;-81
2023/08/08 02:53:57;;;;;;;0.45;0.30;;;17.20;99.90;;;;;;5092367;28;20029;-81
2023/08/08 02:56:23;;;;;;;5.97;0.70;;;17.30;99.90;;;;;;5076347;28;20147;-79
2023/08/08 02:58:49;;;;;;;1.48;0.60;;;17.20;99.90;;;;;;5075406;28;20074;-80
2023/08/08 03:01:15;;;;;;;1.42;0.60;;;17.30;99.90;;;;;;5075281;28;20070;-81
2023/08/08 03:03:41;;;;;;;1.08;0.73;;;17.20;99.90;;;;;;5062203;28;20047;-80
2023/08/08 03:06:07;;;;;;;2.95;0.80;;;17.20;99.90;;;;;;5074491;28;20028;-81
2023/08/08 03:08:33;;;;;;;1.00;0.40;;;17.20;99.90;;;;;;5074960;28;20074;-80
2023/08/08 03:10:59;;;;;;;2.00;0.70;;;17.20;99.90;;;;;;5076377;28;20025;-81
2023/08/08 03:13:25;;;;;;;2.08;0.73;;;17.20;99.90;;;;;;5088391;28;20034;-80
2023/08/08 03:15:50;;;;;;;4.15;0.63;;;17.10;99.90;;;;;;5074541;28;20078;-79
2023/08/08 03:18:16;;;;;;;2.35;0.63;;;17.10;99.90;;;;;;5075327;28;20023;-80
2023/08/08 03:20:42;;;;;;;1.25;0.70;;;17.00;99.90;;;;;;5075894;28;20028;-81
2023/08/08 03:23:08;;;;;;;3.03;0.93;;;17.00;99.90;;;;;;5074872;28;20463;-79
2023/08/08 03:25:34;;;;;;;7.78;1.88;;;17.00;99.90;;;;;;5074534;28;20021;-80
2023/08/08 03:27:59;;;;;;;1.20;0.68;;;17.00;99.90;;;;;;5075803;28;20065;-81
2023/08/08 03:30:25;;;;;;;0.90;0.60;;;17.00;99.90;;;;;;5073689;28;20470;-80
2023/08/08 03:32:51;;;;;;;1.73;0.77;;;16.90;99.90;;;;;;5075278;28;20402;-82
2023/08/08 03:35:17;;;;;;;4.25;0.90;;;16.80;99.90;;;;;;5074197;28;20369;-81
2023/08/08 03:37:42;;;;;;;1.33;0.57;;;16.80;99.90;;;;;;5074919;28;20021;-79
2023/08/08 03:40:08;;;;;;;5.68;1.15;;;16.80;99.90;;;;;;5074894;28;20090;-79
2023/08/08 03:42:34;;;;;;;5.25;1.20;;;16.70;99.90;;;;;;5074735;28;20076;-81
2023/08/08 03:45:00;;;;;;;3.35;1.30;;;16.70;99.90;;;;;;5075454;28;20343;-81
2023/08/08 03:47:26;;;;;;;2.22;0.90;;;16.60;99.90;;;;;;5073409;28;20016;-80
2023/08/08 03:49:55;;;;;;;4.97;1.00;;;16.60;99.90;;;;;;5074935;28;20099;-79
2023/08/08 03:52:21;;;;;;;4.63;0.90;;;16.60;99.90;;;;;;5074963;28;20076;-80
2023/08/08 03:54:46;;;;;;;3.67;0.90;;;16.70;99.90;;;;;;5073381;28;20021;-80
2023/08/08 03:57:12;;;;;;;3.13;1.20;;;16.60;99.90;;;;;;5073025;28;20028;-78
2023/08/08 03:59:38;;;;;;;1.50;0.57;;;16.60;99.90;;;;;;5074559;28;20023;-80
2023/08/08 04:02:04;;;;;;;2.03;0.82;;;16.60;99.90;;;;;;5073939;28;20028;-80
2023/08/08 04:04:30;;;;;;;1.80;0.90;;;16.60;99.90;;;;;;5074618;28;20054;-81
2023/08/08 04:06:56;;;;;;;2.72;0.93;;;16.60;99.90;;;;;;5073240;28;20044;-81
2023/08/08 04:09:21;;;;;;;4.03;1.10;;;16.60;99.90;;;;;;5068548;28;20017;-80
2023/08/08 04:11:47;;;;;;;3.08;1.02;;;16.60;99.90;;;;;;5059200;28;20021;-80
2023/08/08 04:14:13;;;;;;;2.58;1.05;;;16.70;99.90;;;;;;5073344;28;20370;-79
2023/08/08 04:16:39;;;;;;;5.05;1.30;;;16.70;99.90;;;;;;5068318;28;20017;-80
2023/08/08 04:19:05;;;;;;;3.58;1.02;;;16.70;99.90;;;;;;5073020;28;20576;-81
2023/08/08 04:21:32;;;;;;;2.67;0.77;;;16.70;99.90;;;;;;5073692;28;20463;-80
2023/08/08 04:23:59;;;;;;;2.13;1.00;;;16.70;99.90;;;;;;5073080;28;20037;-81
2023/08/08 04:26:25;;;;;;;2.83;0.80;;;16.70;99.90;;;;;;5074301;28;20016;-82
2023/08/08 04:28:51;;;;;;;2.72;0.95;;;16.70;99.90;;;;;;5065807;28;20056;-80
2023/08/08 04:31:17;;;;;;;2.63;0.95;;;16.70;99.90;;;;;;5074101;28;20073;-81
2023/08/08 04:33:43;;;;;;;1.67;0.90;;;16.70;99.90;;;;;;5072126;28;20028;-80
2023/08/08 04:36:09;;;;;;;1.98;1.08;;;16.70;99.90;;;;;;5073395;28;20017;-81
2023/08/08 04:38:34;;;;;;;3.13;1.00;;;16.80;99.90;;;;;;5074168;28;20035;-80
2023/08/08 04:41:00;;;;;;;1.65;1.00;;;16.90;99.90;;;;;;5072754;28;20083;-78
2023/08/08 04:43:27;;;;;;;3.47;1.20;;;16.90;99.90;;;;;;5073595;28;20048;-78
2023/08/08 04:45:53;;;;;;;2.65;1.02;;;16.90;99.90;;;;;;5074403;28;20020;-80
2023/08/08 04:48:19;;;;;;;2.78;1.13;;;16.90;99.90;;;;;;5074191;28;20419;-80
2023/08/08 04:50:48;;;;;;;5.40;1.00;;;16.90;99.90;;;;;;5072896;28;20052;-78
2023/08/08 04:53:14;;;;;;;6.63;1.52;;;17.00;99.90;;;;;;5073188;28;20020;-80
2023/08/08 04:55:40;;;;;;;8.05;1.27;;;17.00;99.90;;;;;;5073134;28;20055;-80
2023/08/08 04:58:05;;;;;;;6.53;1.25;;;17.00;99.90;;;;;;5074039;28;20024;-80
2023/08/08 05:00:31;;;;;;;2.30;1.23;;;17.10;99.90;;;;;;5072852;28;20025;-78
2023/08/08 05:02:57;;;;;;;4.53;1.50;;;17.10;99.90;;;;;;5072818;28;20036;-78
2023/08/08 05:05:23;;;;;;;2.28;0.90;;;17.10;99.90;;;;;;5060755;28;20017;-79
2023/08/08 05:07:48;;;;;;;2.67;0.82;;;17.20;99.90;;;;;;5068839;28;20418;-80
2023/08/08 05:10:14;;;;;;;2.95;1.00;;;17.20;99.90;;;;;;5053866;28;20021;-79
2023/08/08 05:12:40;;;;;;;3.13;0.75;;;17.20;99.90;;;;;;5072615;28;20031;-79
2023/08/08 05:15:06;;;;;;;4.10;0.90;;;17.20;99.90;;;;;;5072808;28;20025;-79
2023/08/08 05:17:32;;;;;;;3.63;0.90;;;17.20;99.90;;;;;;5073808;28;20056;-80
2023/08/08 05:19:58;;;;;;;1.38;0.73;;;17.20;99.90;;;;;;5073889;28;20121;-79
2023/08/08 05:22:23;;;;;;;2.10;0.70;;;17.30;99.90;;;;;;5074088;28;20028;-80
2023/08/08 05:24:49;;;;;;;1.23;0.70;;;17.40;99.90;;;;;;5073627;28;20032;-80
2023/08/08 05:27:15;;;;;;;4.60;0.90;;;17.40;99.90;;;;;;5072341;28;20028;-78
2023/08/08 05:29:41;;;;;;;1.98;0.68;;;17.50;99.90;;;;;;5072712;28;20073;-79
2023/08/08 05:32:08;;;;;;;2.13;0.90;;;17.50;99.90;;;;;;5073544;28;20032;-79
2023/08/08 05:34:34;;;;;;;2.65;0.70;;;17.60;99.90;;;;;;5074010;28;20036;-80
2023/08/08 05:37:00;;;;;;;2.20;0.90;;;17.70;99.90;;;;;;5072561;28;20412;-79
2023/08/08 05:39:26;;;;;;;2.63;0.80;;;17.80;99.90;;;;;;5073002;28;20074;-79
2023/08/08 05:41:52;;;;;;;1.77;0.93;;;17.90;99.90;;;;;;5073832;28;20024;-79
2023/08/08 05:44:18;;;;;;;2.78;0.60;;;18.00;99.90;;;;;;5073753;28;20044;-78
2023/08/08 05:46:44;;;;;;;3.00;0.50;;;18.10;99.90;;;;;;5073561;28;20104;-80
2023/08/08 05:49:10;;;;;;;0.98;0.43;;;18.20;99.90;;;;;;5072542;28;20028;-79
2023/08/08 05:51:35;;;;;;;3.47;0.70;;;18.20;99.90;;;;;;5072420;28;20510;-80
2023/08/08 05:54:01;;;;;;;3.53;0.63;;;18.30;99.90;;;;;;5072354;28;20050;-80
2023/08/08 05:56:35;;;;;;;2.10;0.40;;;18.50;99.90;;;;;;5073371;28;20463;-80
2023/08/08 05:59:01;;;;;;;2.10;0.60;;;18.70;99.90;;;;;;5073888;28;20455;-80
2023/08/08 06:01:27;;;;;;;1.50;0.70;;;18.70;99.40;;;;;;5073357;28;20039;-79
2023/08/08 06:03:53;;;;;;;3.53;0.70;;;18.70;98.50;;;;;;5073534;28;20032;-79
2023/08/08 06:06:19;;;;;;;1.77;0.50;;;18.70;99.10;;;;;;5089156;28;20021;-79
2023/08/08 06:08:45;;;;;;;2.80;0.90;;;18.80;99.90;;;;;;5073290;28;20017;-79
2023/08/08 06:11:10;;;;;;;1.55;0.70;;;18.90;99.90;;;;;;5089097;28;20135;-78
2023/08/08 06:13:37;;;;;;;0.93;0.52;;;19.00;97.00;;;;;;5073595;28;20033;-79
2023/08/08 06:16:06;;;;;;;8.68;2.45;;;19.00;95.40;;;;;;5073431;28;20035;-79
2023/08/08 06:18:33;;;;;;;1.77;0.50;;;19.10;95.10;;;;;;5073319;28;20415;-79
2023/08/08 06:20:59;;;;;;;1.73;0.68;;;19.20;93.80;;;;;;5071999;28;20361;-78
2023/08/08 06:23:25;;;;;;;1.70;0.52;;;19.20;94.10;;;;;;5071719;28;20044;-77
2023/08/08 06:25:51;;;;;;;1.75;0.60;;;19.30;92.60;;;;;;5071818;28;20021;-78
2023/08/08 06:28:16;;;;;;;3.60;0.60;;;19.30;92.50;;;;;;5073103;28;20020;-79
2023/08/08 06:30:42;;;;;;;1.63;0.73;;;19.40;92.80;;;;;;5073126;28;20087;-78
2023/08/08 06:33:08;;;;;;;1.42;0.70;;;19.40;91.30;;;;;;5073022;28;20029;-79
2023/08/08 06:35:34;;;;;;;1.67;0.55;;;19.40;90.70;;;;;;5073116;28;20024;-78
2023/08/08 06:38:00;;;;;;;1.33;0.52;;;19.60;90.70;;;;;;5072944;28;20025;-79
2023/08/08 06:50:34;;;;;;;1.98;0.82;;;19.70;86.60;;;;;;5090988;27;20327;-79
2023/08/08 06:52:59;;;;;;;2.80;0.60;;;19.70;84.70;;;;;;5089716;28;20123;-79
2023/08/08 06:55:26;;;;;;;1.40;0.70;;;19.80;84.60;;;;;;5091013;28;20060;-79
2023/08/08 06:57:51;;;;;;;2.55;0.80;;;19.90;83.30;;;;;;5089613;28;20024;-78
2023/08/08 07:00:17;;;;;;;3.35;0.80;;;19.80;83.30;;;;;;5089784;28;20046;-81
2023/08/08 07:02:43;;;;;;;2.40;0.77;;;19.90;84.30;;;;;;5090137;28;20119;-80
2023/08/08 07:05:10;;;;;;;1.13;0.63;;;20.00;82.20;;;;;;5090694;28;20032;-78
2023/08/08 07:07:35;;;;;;;2.40;1.00;;;20.10;79.60;;;;;;5091092;28;20029;-79
2023/08/08 07:10:03;;;;;;;1.95;0.68;;;20.20;79.60;;;;;;5077992;28;20039;-79
2023/08/08 07:12:29;;;;;;;2.03;0.80;;;20.30;78.70;;;;;;5089496;28;20368;-80
2023/08/08 07:14:55;;;;;;;1.92;0.70;;;20.40;76.70;;;;;;5106571;28;20054;-81
2023/08/08 07:17:21;;;;;;;1.88;0.60;;;20.50;75.90;;;;;;5106292;28;20127;-81
2023/08/08 07:19:46;;;;;;;1.33;0.65;;;20.40;74.20;;;;;;5106043;28;20059;-79
2023/08/08 07:22:13;;;;;;;2.00;0.80;;;20.50;73.80;;;;;;5106363;28;20028;-78
2023/08/08 07:24:39;;;;;;;1.30;0.60;;;20.60;74.30;;;;;;5106032;28;20024;-79
2023/08/08 07:27:05;;;;;;;3.22;0.73;;;20.80;77.60;;;;;;5090620;28;20031;-80
2023/08/08 07:29:31;;;;;;;1.52;0.60;;;20.70;74.90;;;;;;5089353;28;20176;-80
2023/08/08 07:41:49;;;;;;;2.70;0.98;;;20.90;71.50;;;;;;5128434;27;20334;-80
2023/08/08 07:44:16;;;;;;;3.63;1.00;;;21.00;73.80;;;;;;5093239;28;20122;-80
2023/08/08 07:46:41;;;;;;;5.45;0.70;;;21.30;69.70;;;;;;5093089;28;20035;-79
2023/08/08 07:49:09;;;;;;;3.38;0.80;;;21.50;68.60;;;;;;5093312;28;20073;-80
2023/08/08 07:51:35;;;;;;;3.90;0.80;;;21.40;69.10;;;;;;5111921;28;20070;-81
2023/08/08 07:54:00;;;;;;;1.63;0.85;;;21.50;68.10;;;;;;5111141;28;20031;-81
2023/08/08 07:56:26;;;;;;;0.90;0.50;;;21.70;69.00;;;;;;5093061;28;20032;-81
2023/08/08 07:58:52;;;;;;;2.90;0.80;;;21.90;66.90;;;;;;5110943;28;20031;-81
2023/08/08 08:01:18;;;;;;;2.20;0.70;;;21.90;65.60;;;;;;5110892;28;20028;-83
2023/08/08 08:03:44;;;;;;;1.17;0.57;;;21.80;64.00;;;;;;5111280;28;20381;-80
2023/08/08 08:06:10;;;;;;;0.75;0.50;;;21.70;62.90;;;;;;5092563;28;20027;-83
2023/08/08 08:08:36;;;;;;;1.38;0.50;;;22.00;65.40;;;;;;5110855;28;20049;-81
2023/08/08 08:11:02;;;;;;;0.95;0.60;;;21.70;63.80;;;;;;5110754;28;20032;-82
2023/08/08 08:13:28;;;;;;;2.40;0.75;;;21.40;64.90;;;;;;5110469;28;20385;-80
2023/08/08 08:15:54;;;;;;;4.20;0.75;;;21.30;65.00;;;;;;5092483;28;20035;-80
2023/08/08 08:18:20;;;;;;;1.70;0.65;;;21.00;64.20;;;;;;5109961;28;20120;-81
2023/08/08 08:20:46;;;;;;;3.58;0.80;;;20.90;66.00;;;;;;5108679;28;20031;-81
2023/08/08 08:23:13;;;;;;;2.20;0.43;;;20.90;67.30;;;;;;5090278;28;20077;-81
2023/08/08 08:25:38;;;;;;;1.45;0.43;;;21.10;65.30;;;;;;5090777;28;20474;-82
2023/08/08 08:28:05;;;;;;;3.35;0.98;;;21.40;64.90;;;;;;5092040;28;20031;-82
2023/08/08 08:30:31;;;;;;;0.68;0.45;;;21.60;64.80;;;;;;5110075;28;20036;-81
2023/08/08 08:32:57;;;;;;;2.38;0.50;;;21.90;65.10;;;;;;5110319;28;20066;-83
2023/08/08 08:35:23;;;;;;;1.20;0.60;;;22.20;63.60;;;;;;5091724;28;20051;-81
2023/08/08 08:37:49;;;;;;;2.15;0.90;;;22.20;64.70;;;;;;5110072;28;20032;-81
2023/08/08 08:40:15;;;;;;;1.30;0.82;;;22.20;63.20;;;;;;5095949;28;20062;-82
2023/08/08 08:42:41;;;;;;;1.48;0.60;;;22.20;61.60;;;;;;5108888;28;20081;-80
2023/08/08 08:45:10;;;;;;;1.05;0.40;;;22.30;62.10;;;;;;5109116;28;20028;-79
2023/08/08 08:47:37;;;;;;;1.80;0.68;;;;;;;;;;5095911;28;20028;-78
2023/08/08 08:50:04;;;;;;;1.92;0.50;;;;;;;;;;5100443;28;20035;-79
2023/08/08 08:52:30;;;;;;;1.92;0.68;;;22.60;62.10;;;;;;5100478;28;20028;-78
2023/08/08 08:54:57;;;;;;;4.13;0.55;;;22.50;59.90;;;;;;5088917;28;20463;-79
2023/08/08 08:57:23;;;;;;;2.97;0.50;;;22.30;60.10;;;;;;5087417;28;20065;-78
2023/08/08 08:59:50;;;;;;;1.75;0.85;;;22.00;60.50;;;;;;5086785;28;20165;-79
2023/08/08 09:02:17;;;;;;;2.97;0.57;;;21.70;60.50;;;;;;5089438;28;20032;-78
2023/08/08 09:04:43;;;;;;;2.65;0.90;;;21.60;61.10;;;;;;5086372;28;20020;-79
2023/08/08 09:07:10;;;;;;;1.02;0.50;;;22.00;62.60;;;;;;5085059;28;20020;-79
2023/08/08 09:09:37;;;;;;;3.22;0.45;;;;;;;;;;5087027;28;20530;-78
2023/08/08 09:12:05;;;;;;;1.45;0.55;;;22.60;61.80;;;;;;5085609;28;20071;-80
2023/08/08 09:14:31;;;;;;;1.02;0.57;;;22.80;61.20;;;;;;5089677;28;20028;-77
2023/08/08 09:16:57;;;;;;;2.67;0.90;;;23.00;59.40;;;;;;5084960;28;20065;-78
2023/08/08 09:19:24;;;;;;;2.00;0.47;;;;;;;;;;5087624;28;20036;-77
2023/08/08 09:21:50;;;;;;;1.15;0.50;;;;;;;;;;5089627;28;20069;-79
2023/08/08 09:24:16;;;;;;;0.73;0.50;;;;;;;;;;5084958;28;20016;-80
2023/08/08 09:26:43;;;;;;;0.68;0.50;;;;;;;;;;5087039;28;20095;-79
2023/08/08 09:29:09;;;;;;;1.63;0.55;;;;;;;;;;5089077;28;20024;-79
2023/08/08 23:31:37;;;;;;;3.80;1.83;;;15.90;99.90;;;;;;5164219;27;20121;-79
2023/08/08 23:34:03;;;;;;;5.25;1.77;;;15.60;99.90;;;;;;5151908;27;20027;-79
2023/08/08 23:36:29;;;;;;;3.80;1.85;;;15.60;99.90;;;;;;5152452;27;20027;-78
2023/08/08 23:38:55;;;;;;;3.38;1.73;;;15.60;99.90;;;;;;5151701;27;20023;-79
2023/08/08 23:41:20;;;;;;;3.92;1.77;;;15.60;99.90;;;;;;5133651;27;20071;-80
2023/08/08 23:43:46;;;;;;;4.43;1.85;;;15.70;99.90;;;;;;5146435;27;20062;-78
2023/08/08 23:46:12;;;;;;;6.22;2.08;;;15.70;99.90;;;;;;5151778;27;20019;-78
2023/08/08 23:48:38;;;;;;;4.25;1.80;;;15.70;99.90;;;;;;5152155;27;20023;-80
2023/08/08 23:51:05;;;;;;;4.63;1.60;;;15.70;99.90;;;;;;5151506;27;20106;-78
2023/08/08 23:53:30;;;;;;;4.90;1.95;;;15.80;99.90;;;;;;5133288;27;20023;-80
2023/08/08 23:55:56;;;;;;;3.78;1.50;;;15.70;99.90;;;;;;5152330;27;20048;-80
2023/08/08 23:58:22;;;;;;;3.83;1.58;;;15.80;99.90;;;;;;5151298;27;20318;-80
